createdAt,value
2022-11-30T00:01:19.091Z,12.70
2022-11-30T00:03:46.628Z,13.70
2022-11-30T00:06:16.960Z,13.97
2022-11-30T00:08:44.117Z,14.23
2022-11-30T00:11:17.836Z,12.93
2022-11-30T00:13:44.920Z,14.83
2022-11-30T00:16:12.026Z,12.57
2022-11-30T00:18:39.175Z,15.03
2022-11-30T00:21:11.680Z,13.03
2022-11-30T00:23:40.643Z,14.07
2022-11-30T00:26:10.154Z,12.97
2022-11-30T00:28:38.325Z,11.40
2022-11-30T00:31:08.881Z,14.77
2022-11-30T00:33:37.717Z,11.50
2022-11-30T00:36:07.229Z,12.90
2022-11-30T00:38:34.775Z,11.97
2022-11-30T00:41:02.123Z,14.17
2022-11-30T00:43:29.492Z,12.33
2022-11-30T00:45:56.469Z,11.57
2022-11-30T00:48:23.653Z,12.57
2022-11-30T00:50:51.240Z,11.20
2022-11-30T00:53:19.240Z,11.63
2022-11-30T00:55:47.028Z,11.93
2022-11-30T00:58:14.409Z,12.40
2022-11-30T01:00:41.741Z,11.53
2022-11-30T01:03:08.946Z,12.03
2022-11-30T01:05:37.084Z,10.63
2022-11-30T01:08:06.597Z,11.73
2022-11-30T01:10:37.895Z,10.83
2022-11-30T01:13:05.875Z,13.70
2022-11-30T01:15:40.698Z,15.10
2022-11-30T01:18:07.783Z,12.43
2022-11-30T01:20:35.305Z,13.00
2022-11-30T01:23:02.274Z,12.93
2022-11-30T01:25:29.271Z,12.77
2022-11-30T01:27:56.210Z,11.07
2022-11-30T01:30:23.230Z,12.60
2022-11-30T01:32:50.203Z,11.87
2022-11-30T01:35:17.251Z,12.73
2022-11-30T01:37:44.215Z,12.80
2022-11-30T01:40:12.435Z,12.10
2022-11-30T01:42:46.461Z,13.57
2022-11-30T01:45:14.458Z,12.50
2022-11-30T01:47:50.831Z,12.50
2022-11-30T01:50:27.268Z,11.80
2022-11-30T01:52:57.043Z,14.00
2022-11-30T01:55:40.050Z,13.20
2022-11-30T01:58:14.350Z,13.10
2022-11-30T02:00:47.017Z,13.33
2022-11-30T02:03:26.279Z,12.90
2022-11-30T02:05:53.796Z,12.53
2022-11-30T02:08:21.378Z,12.37
2022-11-30T02:10:53.765Z,11.67
2022-11-30T02:13:37.726Z,11.00
2022-11-30T02:16:07.542Z,11.77
2022-11-30T02:18:34.647Z,10.73
2022-11-30T02:21:26.247Z,10.00
2022-11-30T02:24:30.918Z,11.83
2022-11-30T02:27:31.744Z,13.60
2022-11-30T02:29:58.838Z,11.73
2022-11-30T02:32:33.922Z,15.27
2022-11-30T02:35:03.278Z,11.53
2022-11-30T02:37:31.885Z,13.07
2022-11-30T02:39:58.886Z,14.23
2022-11-30T02:42:25.805Z,12.63
2022-11-30T02:44:54.175Z,11.40
2022-11-30T02:47:35.074Z,9.67
2022-11-30T02:50:10.449Z,14.57
2022-11-30T02:52:37.684Z,12.60
2022-11-30T02:55:07.543Z,11.30
2022-11-30T02:57:35.357Z,12.97
2022-11-30T03:00:08.263Z,11.30
2022-11-30T03:02:35.315Z,11.80
2022-11-30T03:05:02.830Z,11.23
2022-11-30T03:07:29.829Z,12.40
2022-11-30T03:09:56.925Z,12.73
2022-11-30T03:12:23.945Z,11.83
2022-11-30T03:14:50.924Z,11.33
2022-11-30T03:17:18.257Z,10.70
2022-11-30T03:19:45.439Z,12.10
2022-11-30T03:22:12.459Z,12.20
2022-11-30T03:24:39.363Z,12.97
2022-11-30T03:27:06.333Z,11.80
2022-11-30T03:29:33.293Z,14.47
2022-11-30T03:32:00.218Z,12.53
2022-11-30T03:34:28.621Z,14.30
2022-11-30T03:36:56.013Z,13.37
2022-11-30T03:39:24.735Z,13.30
2022-11-30T03:41:52.177Z,12.63
2022-11-30T03:44:19.633Z,13.77
2022-11-30T03:46:46.638Z,12.23
2022-11-30T03:49:13.623Z,14.13
2022-11-30T03:51:40.626Z,13.57
2022-11-30T03:54:07.526Z,12.83
2022-11-30T03:56:34.537Z,12.77
2022-11-30T03:59:01.574Z,12.87
2022-11-30T04:01:28.626Z,11.37
2022-11-30T04:03:55.804Z,12.53
2022-11-30T04:06:22.830Z,11.33
2022-11-30T04:08:50.425Z,12.47
2022-11-30T04:11:17.572Z,20.63
2022-11-30T04:13:44.688Z,12.33
2022-11-30T04:16:11.891Z,12.13
2022-11-30T04:18:39.366Z,11.63
2022-11-30T04:21:07.977Z,12.37
2022-11-30T04:23:39.020Z,12.13
2022-11-30T04:26:08.118Z,12.40
2022-11-30T04:28:35.326Z,11.37
2022-11-30T04:31:03.007Z,12.50
2022-11-30T04:33:30.809Z,11.53
2022-11-30T04:36:03.508Z,10.63
2022-11-30T04:38:30.704Z,10.30
2022-11-30T04:40:57.949Z,11.47
2022-11-30T04:43:25.590Z,10.63
2022-11-30T04:45:52.661Z,14.13
2022-11-30T04:48:20.403Z,12.80
2022-11-30T04:50:47.497Z,14.57
2022-11-30T04:53:14.678Z,11.57
2022-11-30T04:55:41.640Z,14.93
2022-11-30T04:58:08.776Z,13.13
2022-11-30T05:00:36.585Z,10.33
2022-11-30T05:03:03.798Z,9.47
2022-11-30T05:05:30.853Z,14.00
2022-11-30T05:07:59.825Z,10.20
2022-11-30T05:10:28.126Z,10.07
2022-11-30T05:12:55.136Z,11.30
2022-11-30T05:15:22.212Z,11.30
2022-11-30T05:17:49.369Z,8.97
2022-11-30T05:20:16.536Z,10.63
2022-11-30T05:22:43.552Z,10.50
2022-11-30T05:25:10.882Z,10.13
2022-11-30T05:27:38.321Z,10.17
2022-11-30T05:30:06.423Z,10.87
2022-11-30T05:32:33.455Z,11.57
2022-11-30T05:35:00.508Z,7.33
2022-11-30T05:37:27.442Z,10.53
2022-11-30T05:39:54.425Z,9.43
2022-11-30T05:42:21.647Z,9.87
2022-11-30T05:44:48.942Z,8.33
2022-11-30T05:47:16.427Z,10.20
2022-11-30T05:49:43.479Z,10.50
2022-11-30T05:52:11.113Z,10.50
2022-11-30T05:54:38.088Z,9.70
2022-11-30T05:57:05.534Z,7.03
2022-11-30T05:59:32.661Z,7.40
2022-11-30T06:01:59.824Z,7.50
2022-11-30T06:04:26.963Z,8.83
2022-11-30T06:06:55.811Z,7.80
2022-11-30T06:09:23.773Z,7.73
2022-11-30T06:11:51.226Z,9.30
2022-11-30T06:14:18.254Z,6.27
2022-11-30T06:16:45.748Z,7.90
2022-11-30T06:19:12.876Z,8.80
2022-11-30T06:21:39.859Z,6.90
2022-11-30T06:24:07.180Z,8.40
2022-11-30T06:26:34.129Z,7.90
2022-11-30T06:29:01.119Z,10.33
2022-11-30T06:31:28.129Z,12.00
2022-11-30T06:33:58.743Z,9.90
2022-11-30T06:36:27.201Z,10.13
2022-11-30T06:38:56.026Z,7.93
2022-11-30T06:41:22.997Z,5.67
2022-11-30T06:43:50.063Z,6.93
2022-11-30T06:46:17.140Z,6.73
2022-11-30T06:48:47.597Z,7.50
2022-11-30T06:51:14.525Z,6.53
2022-11-30T06:53:44.417Z,4.00
2022-11-30T06:56:12.480Z,8.67
2022-11-30T06:58:39.907Z,11.80
2022-11-30T07:01:08.573Z,9.93
2022-11-30T07:03:36.161Z,10.20
2022-11-30T07:06:11.539Z,9.97
2022-11-30T07:08:39.744Z,7.20
2022-11-30T07:11:08.115Z,6.07
2022-11-30T07:13:35.204Z,5.57
2022-11-30T07:16:07.073Z,5.10
2022-11-30T07:18:34.951Z,4.53
2022-11-30T07:21:03.476Z,6.30
2022-11-30T07:23:55.565Z,5.00
2022-11-30T07:26:24.553Z,3.33
2022-11-30T07:28:55.183Z,3.90
2022-11-30T07:31:36.375Z,4.40
2022-11-30T07:34:07.082Z,4.57
2022-11-30T07:36:35.787Z,5.37
2022-11-30T07:39:04.264Z,3.90
2022-11-30T07:41:31.300Z,6.13
2022-11-30T07:43:58.267Z,5.57
2022-11-30T07:46:25.346Z,7.27
2022-11-30T07:48:52.289Z,4.23
2022-11-30T07:51:21.984Z,5.67
2022-11-30T07:53:49.776Z,6.00
2022-11-30T07:56:18.982Z,5.63
2022-11-30T07:58:46.377Z,5.30
2022-11-30T08:01:19.050Z,5.40
2022-11-30T08:03:46.176Z,6.00
2022-11-30T08:06:25.396Z,5.97
2022-11-30T08:08:54.049Z,8.63
2022-11-30T08:11:24.056Z,4.70
2022-11-30T08:13:51.147Z,5.53
2022-11-30T08:16:21.005Z,5.93
2022-11-30T08:18:48.131Z,6.10
2022-11-30T08:21:17.541Z,4.87
2022-11-30T08:23:50.784Z,5.97
2022-11-30T08:26:20.020Z,7.07
2022-11-30T08:28:49.140Z,7.37
2022-11-30T08:31:21.800Z,4.63
2022-11-30T08:33:49.935Z,4.37
2022-11-30T08:36:22.183Z,5.17
2022-11-30T08:38:49.557Z,3.70
2022-11-30T08:41:21.627Z,4.33
2022-11-30T08:43:49.850Z,6.27
2022-11-30T08:49:20.844Z,4.10
2022-11-30T08:54:36.185Z,6.63
2022-11-30T08:57:03.300Z,6.20
2022-11-30T08:59:32.146Z,5.70
2022-11-30T09:01:59.145Z,6.63
2022-11-30T09:04:26.278Z,4.93
2022-11-30T09:06:53.314Z,5.00
2022-11-30T09:09:20.365Z,6.70
2022-11-30T09:11:47.391Z,8.10
2022-11-30T09:14:14.346Z,6.90
2022-11-30T09:16:41.290Z,6.13
2022-11-30T09:19:09.041Z,8.63
2022-11-30T09:21:36.113Z,6.70
2022-11-30T09:24:03.195Z,5.93
2022-11-30T09:26:30.674Z,5.50
2022-11-30T09:28:57.613Z,6.13
2022-11-30T09:31:26.411Z,6.53
2022-11-30T09:33:55.957Z,7.57
2022-11-30T09:36:27.156Z,7.33
2022-11-30T09:38:55.638Z,7.60
2022-11-30T09:41:34.502Z,5.20
2022-11-30T09:44:01.449Z,5.53
2022-11-30T09:46:39.651Z,5.37
2022-11-30T09:49:14.123Z,6.37
2022-11-30T09:51:46.955Z,6.67
2022-11-30T09:54:35.573Z,6.10
2022-11-30T09:57:34.710Z,6.27
2022-11-30T10:00:06.434Z,7.23
2022-11-30T10:02:38.561Z,5.60
2022-11-30T10:05:17.474Z,5.97
2022-11-30T10:08:02.950Z,7.07
2022-11-30T10:10:34.832Z,6.07
2022-11-30T10:13:29.756Z,6.27
2022-11-30T10:16:15.308Z,5.87
2022-11-30T10:19:00.758Z,5.47
2022-11-30T10:21:55.399Z,5.03
2022-11-30T10:25:11.893Z,7.40
2022-11-30T10:28:12.596Z,5.23
2022-11-30T10:30:49.465Z,4.93
2022-11-30T10:33:22.420Z,5.23
2022-11-30T10:35:51.101Z,5.57
2022-11-30T10:38:25.902Z,5.50
2022-11-30T10:40:55.637Z,5.60
2022-11-30T10:43:34.058Z,6.63
2022-11-30T10:46:01.201Z,6.70
2022-11-30T10:48:40.235Z,6.07
2022-11-30T10:51:08.061Z,9.23
2022-11-30T10:53:35.064Z,8.23
2022-11-30T10:56:15.256Z,9.23
2022-11-30T10:59:00.977Z,12.43
2022-11-30T11:01:37.244Z,11.97
2022-11-30T11:04:13.107Z,13.33
2022-11-30T11:06:47.582Z,11.97
2022-11-30T11:09:34.990Z,13.90
2022-11-30T11:12:06.754Z,14.27
2022-11-30T11:14:38.228Z,7.50
2022-11-30T11:17:28.597Z,6.03
2022-11-30T11:19:55.573Z,7.20
2022-11-30T11:22:28.052Z,7.13
2022-11-30T11:25:12.571Z,5.87
2022-11-30T11:27:44.929Z,6.93
2022-11-30T11:30:28.745Z,7.63
2022-11-30T11:33:00.996Z,4.53
2022-11-30T11:35:52.922Z,5.93
2022-11-30T11:38:39.084Z,7.03
2022-11-30T11:41:21.369Z,5.67
2022-11-30T11:44:23.420Z,6.43
2022-11-30T11:47:06.966Z,6.87
2022-11-30T11:49:36.926Z,6.87
2022-11-30T11:52:13.116Z,6.57
2022-11-30T11:54:53.455Z,5.90
2022-11-30T11:57:23.767Z,6.97
2022-11-30T12:00:00.228Z,6.10
2022-11-30T12:02:27.175Z,6.57
2022-11-30T12:05:24.517Z,8.00
2022-11-30T12:08:10.458Z,6.67
2022-11-30T12:11:05.632Z,7.50
2022-11-30T12:13:43.404Z,9.77
2022-11-30T12:16:17.219Z,6.80
2022-11-30T12:19:03.207Z,6.63
2022-11-30T12:22:03.799Z,14.37
2022-11-30T12:24:43.033Z,10.40
2022-11-30T12:27:21.860Z,12.70
2022-11-30T12:29:54.954Z,10.10
2022-11-30T12:32:48.777Z,9.27
2022-11-30T12:35:18.793Z,7.23
2022-11-30T12:38:11.074Z,8.57
2022-11-30T12:41:07.079Z,7.57
2022-11-30T12:43:53.118Z,6.47
2022-11-30T12:46:51.436Z,8.47
2022-11-30T12:49:53.431Z,8.87
2022-11-30T12:52:56.098Z,7.70
2022-11-30T12:55:54.610Z,9.70
2022-11-30T12:58:44.591Z,9.30
2022-11-30T13:01:29.714Z,9.30
2022-11-30T13:04:29.081Z,7.67
2022-11-30T13:07:04.655Z,9.90
2022-11-30T13:09:44.842Z,10.70
2022-11-30T13:12:19.170Z,10.27
2022-11-30T13:14:47.014Z,10.93
2022-11-30T13:17:18.339Z,12.37
2022-11-30T13:20:14.415Z,13.80
2022-11-30T13:23:00.198Z,11.00
2022-11-30T13:26:06.738Z,12.07
2022-11-30T13:28:34.131Z,11.10
2022-11-30T13:31:19.793Z,11.20
2022-11-30T13:33:59.016Z,12.63
2022-11-30T13:36:44.765Z,14.80
2022-11-30T13:39:14.724Z,20.33
2022-11-30T13:41:43.790Z,18.77
2022-11-30T13:44:41.691Z,14.80
2022-11-30T13:47:20.108Z,14.50
2022-11-30T13:49:54.301Z,15.13
2022-11-30T13:52:59.416Z,16.30
2022-11-30T13:55:47.911Z,13.70
2022-11-30T13:58:16.239Z,14.33
2022-11-30T14:00:46.393Z,14.90
2022-11-30T14:03:22.520Z,14.67
2022-11-30T14:05:54.136Z,13.30
2022-11-30T14:08:21.045Z,14.20
2022-11-30T14:11:14.877Z,11.33
2022-11-30T14:13:42.353Z,10.63
2022-11-30T14:16:24.880Z,10.13
2022-11-30T14:18:52.558Z,16.00
2022-11-30T14:21:33.554Z,13.17
2022-11-30T14:24:22.990Z,14.50
2022-11-30T14:26:51.714Z,13.20
2022-11-30T14:29:33.159Z,12.07
2022-11-30T14:32:21.065Z,11.00
2022-11-30T14:34:54.521Z,11.73
2022-11-30T14:37:33.335Z,14.23
2022-11-30T14:40:06.471Z,11.97
2022-11-30T14:42:35.515Z,11.63
2022-11-30T14:45:02.752Z,10.23
2022-11-30T14:47:34.724Z,11.37
2022-11-30T14:50:05.922Z,11.30
2022-11-30T14:53:08.974Z,9.67
2022-11-30T14:55:50.820Z,11.47
2022-11-30T14:58:22.729Z,11.17
2022-11-30T15:00:51.029Z,11.77
2022-11-30T15:03:23.938Z,11.23
2022-11-30T15:06:02.278Z,10.47
2022-11-30T15:08:42.294Z,12.50
2022-11-30T15:11:14.366Z,10.13
2022-11-30T15:13:53.972Z,11.47
2022-11-30T15:16:25.590Z,11.40
2022-11-30T15:18:54.455Z,10.50
2022-11-30T15:21:27.275Z,9.90
2022-11-30T15:23:59.859Z,14.53
2022-11-30T15:26:27.524Z,10.10
2022-11-30T15:29:06.311Z,11.27
2022-11-30T15:31:36.416Z,9.70
2022-11-30T15:34:04.373Z,11.97
2022-11-30T15:36:35.919Z,10.87
2022-11-30T15:39:06.478Z,11.47
2022-11-30T15:41:34.887Z,11.07
2022-11-30T15:44:02.503Z,11.03
2022-11-30T15:46:33.658Z,12.07
2022-11-30T15:49:06.612Z,10.60
2022-11-30T15:51:41.657Z,12.80
2022-11-30T15:54:08.831Z,9.63
2022-11-30T15:56:36.397Z,10.00
2022-11-30T15:59:29.501Z,8.90
2022-11-30T16:02:08.944Z,9.87
2022-11-30T16:04:57.879Z,11.93
2022-11-30T16:07:27.589Z,11.33
2022-11-30T16:10:06.032Z,14.17
2022-11-30T16:12:33.405Z,10.37
2022-11-30T16:15:00.367Z,10.80
2022-11-30T16:17:28.247Z,12.87
2022-11-30T16:19:55.261Z,10.63
2022-11-30T16:22:22.240Z,10.07
2022-11-30T16:24:49.259Z,9.43
2022-11-30T16:27:18.378Z,13.03
2022-11-30T16:29:51.894Z,10.07
2022-11-30T16:32:19.566Z,10.90
2022-11-30T16:34:48.230Z,11.67
2022-11-30T16:37:15.213Z,10.17
2022-11-30T16:39:42.320Z,10.70
2022-11-30T16:42:12.869Z,10.07
2022-11-30T16:44:39.789Z,11.70
2022-11-30T16:47:06.737Z,10.73
2022-11-30T16:49:33.679Z,10.40
2022-11-30T16:52:00.637Z,11.03
2022-11-30T16:54:27.708Z,10.93
2022-11-30T16:56:54.659Z,10.00
2022-11-30T16:59:21.600Z,8.73
2022-11-30T17:01:53.354Z,9.87
2022-11-30T17:04:26.503Z,9.13
2022-11-30T17:07:00.585Z,10.73
2022-11-30T17:09:30.422Z,9.70
2022-11-30T17:11:57.811Z,9.60
2022-11-30T17:14:24.747Z,9.60
2022-11-30T17:16:51.915Z,9.70
2022-11-30T17:19:18.987Z,8.70
2022-11-30T17:21:46.246Z,8.70
2022-11-30T17:24:13.463Z,8.57
2022-11-30T17:26:40.870Z,8.90
2022-11-30T17:29:07.941Z,9.33
2022-11-30T17:31:35.741Z,8.83
2022-11-30T17:34:02.682Z,8.03
2022-11-30T17:36:29.677Z,9.07
2022-11-30T17:38:56.810Z,9.53
2022-11-30T17:41:23.968Z,8.30
2022-11-30T17:43:52.100Z,9.40
2022-11-30T17:46:21.083Z,8.63
2022-11-30T17:48:49.392Z,9.23
2022-11-30T17:51:16.596Z,13.43
2022-11-30T17:53:44.498Z,9.90
2022-11-30T17:56:16.932Z,11.23
2022-11-30T17:58:45.355Z,8.03
2022-11-30T18:01:26.642Z,9.00
2022-11-30T18:03:55.339Z,9.53
2022-11-30T18:06:22.717Z,8.70
2022-11-30T18:08:49.801Z,8.73
2022-11-30T18:11:22.003Z,10.00
2022-11-30T18:13:51.696Z,10.43
2022-11-30T18:16:30.520Z,8.83
2022-11-30T18:18:59.152Z,8.17
2022-11-30T18:21:28.145Z,10.33
2022-11-30T18:23:55.742Z,10.17
2022-11-30T18:26:24.594Z,9.33
2022-11-30T18:28:56.665Z,9.80
2022-11-30T18:31:23.957Z,8.57
2022-11-30T18:33:55.954Z,8.57
2022-11-30T18:36:23.406Z,11.90
2022-11-30T18:38:50.336Z,8.60
2022-11-30T18:41:17.350Z,8.10
2022-11-30T18:43:44.333Z,8.60
2022-11-30T18:46:12.758Z,9.07
2022-11-30T18:48:41.227Z,8.23
2022-11-30T18:51:16.786Z,10.07
2022-11-30T18:53:44.110Z,8.83
2022-11-30T18:56:14.006Z,11.23
2022-11-30T18:58:44.655Z,8.43
2022-11-30T19:01:18.645Z,10.60
2022-11-30T19:03:52.503Z,11.27
2022-11-30T19:06:20.258Z,10.93
2022-11-30T19:08:48.236Z,9.40
2022-11-30T19:11:16.509Z,9.90
2022-11-30T19:13:44.486Z,10.90
2022-11-30T19:16:14.497Z,9.80
2022-11-30T19:18:42.046Z,10.10
2022-11-30T19:21:11.884Z,10.37
2022-11-30T19:23:39.626Z,8.77
2022-11-30T19:26:07.917Z,8.87
2022-11-30T19:28:36.997Z,9.23
2022-11-30T19:31:09.826Z,9.30
2022-11-30T19:33:38.432Z,10.57
2022-11-30T19:36:07.506Z,10.97
2022-11-30T19:38:34.895Z,9.47
2022-11-30T19:41:09.738Z,8.40
2022-11-30T19:43:37.552Z,10.37
2022-11-30T19:46:09.528Z,9.47
2022-11-30T19:48:37.053Z,9.93
2022-11-30T19:51:17.610Z,9.63
2022-11-30T19:53:45.615Z,8.80
2022-11-30T19:56:14.835Z,10.53
2022-11-30T19:58:43.946Z,9.03
2022-11-30T20:01:19.864Z,40.70
2022-11-30T20:03:47.190Z,16.87
2022-11-30T20:06:14.228Z,17.00
2022-11-30T20:08:41.589Z,12.60
2022-11-30T20:11:13.486Z,10.23
2022-11-30T20:13:40.864Z,11.10
2022-11-30T20:16:09.576Z,9.37
2022-11-30T20:18:40.085Z,9.03
2022-11-30T20:21:21.348Z,11.43
2022-11-30T20:23:49.155Z,13.07
2022-11-30T20:26:30.214Z,10.13
2022-11-30T20:28:58.601Z,9.70
2022-11-30T20:31:26.543Z,9.60
2022-11-30T20:33:53.609Z,10.40
2022-11-30T20:36:21.477Z,9.07
2022-11-30T20:38:48.542Z,9.70
2022-11-30T20:41:19.798Z,10.37
2022-11-30T20:43:47.667Z,9.13
2022-11-30T20:46:23.809Z,9.07
2022-11-30T20:48:51.783Z,8.93
2022-11-30T20:51:30.714Z,9.80
2022-11-30T20:54:01.109Z,10.33
2022-11-30T20:56:28.277Z,13.43
2022-11-30T20:58:55.264Z,11.50
2022-11-30T21:01:23.262Z,9.67
2022-11-30T21:03:50.542Z,8.07
2022-11-30T21:06:17.837Z,8.17
2022-11-30T21:08:44.906Z,9.20
2022-11-30T21:11:14.673Z,10.13
2022-11-30T21:13:43.918Z,10.43
2022-11-30T21:16:12.391Z,10.20
2022-11-30T21:18:41.882Z,8.53
2022-11-30T21:21:19.036Z,10.23
2022-11-30T21:23:47.285Z,10.67
2022-11-30T21:26:23.424Z,9.20
2022-11-30T21:28:54.617Z,9.90
2022-11-30T21:31:23.369Z,10.17
2022-11-30T21:33:53.163Z,7.60
2022-11-30T21:36:21.813Z,12.40
2022-11-30T21:38:53.287Z,8.30
2022-11-30T21:41:20.341Z,9.60
2022-11-30T21:43:47.332Z,8.63
2022-11-30T21:46:17.186Z,9.87
2022-11-30T21:48:46.964Z,11.17
2022-11-30T21:51:23.335Z,9.77
2022-11-30T21:53:53.025Z,10.63
2022-11-30T21:56:23.167Z,11.97
2022-11-30T21:58:51.151Z,11.27
2022-11-30T22:01:25.436Z,10.47
2022-11-30T22:03:54.424Z,12.07
2022-11-30T22:06:22.824Z,10.80
2022-11-30T22:08:50.035Z,11.30
2022-11-30T22:11:19.521Z,11.17
2022-11-30T22:13:53.639Z,11.20
2022-11-30T22:16:22.350Z,12.20
2022-11-30T22:18:53.004Z,12.60
2022-11-30T22:21:23.640Z,12.70
2022-11-30T22:23:55.867Z,11.20
2022-11-30T22:26:27.035Z,13.10
2022-11-30T22:29:14.776Z,9.17
2022-11-30T22:31:44.478Z,10.37
2022-11-30T22:34:12.375Z,11.50
2022-11-30T22:36:41.772Z,10.23
2022-11-30T22:39:13.318Z,10.07
2022-11-30T22:41:41.884Z,12.83
2022-11-30T22:44:17.140Z,12.50
2022-11-30T22:46:44.996Z,11.27
2022-11-30T22:49:20.306Z,11.33
2022-11-30T22:51:48.602Z,10.40
2022-11-30T22:54:15.710Z,8.10
2022-11-30T22:56:42.793Z,9.30
2022-11-30T22:59:14.124Z,11.80
2022-11-30T23:01:50.239Z,12.33
2022-11-30T23:04:20.061Z,10.93
2022-11-30T23:06:48.792Z,12.03
2022-11-30T23:09:18.573Z,12.47
2022-11-30T23:11:45.937Z,11.07
2022-11-30T23:14:13.385Z,9.30
2022-11-30T23:16:40.717Z,9.37
2022-11-30T23:19:08.501Z,10.17
2022-11-30T23:21:41.456Z,10.03
2022-11-30T23:24:13.346Z,12.13
2022-11-30T23:26:41.489Z,9.07
2022-11-30T23:29:12.417Z,10.40
2022-11-30T23:31:41.094Z,9.60
2022-11-30T23:34:10.934Z,10.03
2022-11-30T23:36:38.140Z,5.80
2022-11-30T23:39:09.035Z,9.57
2022-11-30T23:41:36.082Z,10.47
2022-11-30T23:44:03.814Z,7.77
2022-11-30T23:46:31.020Z,9.23
2022-11-30T23:48:58.220Z,9.73
2022-11-30T23:51:26.132Z,10.20
2022-11-30T23:53:53.157Z,12.37
2022-11-30T23:56:21.356Z,10.30
2022-11-30T23:58:48.357Z,12.27
